Airport View

Enter AWOS ICAO identifier for current METAR.

ex. KFNL

KAVK 221835Z AUTO 04020KT 10SM CLR 30/12 A3020 RMK AO2

22 Jul 2019 18:50

Frequency: 121.125

Phone: 580-327-6778

Other Area AWOS: KP28 - KEND - KWWR - KWDG

TAF KEND 221800Z 2218/2324 03015G25KT 9999 FEW045 QNH3011INS BECMG 2301/2302 04009KT 9999 FEW060 QNH3012INS TX31/2222Z TN18/2312Z